WXM80 ListenWXM80 Stop

You find our weather info also at:

UK Metoffice

WeatherCloud

Weather Underground

Northeastern Weather Network

AWEKAS

Citizen Weather Observer Program (CWOP)

HAMweather, WeatherForYou, PWS Weather


Weather Underground History page Text

Daily Summary for March 4, 2017 Units:  Both    English   Metric
« Previous Day
Next Day »
Daily Weekly Monthly Yearly Custom
  High: Low: Average:
Temperature: 31.0 °F /  -0.6 °C 18.2 °F /  -7.7 °C 24.5 °F /  -4.2 °C
Dew Point: 13.0 °F /  -10.6 °C -1.2 °F /  -18.4 °C 6.3 °F /  -14.3 °C
Humidity: 57 % 34 % 46 %
Wind Speed: 14.7 mph /  23.7 km/h - 7.5 mph /  12.1 km/h
Wind Gust: 24.2 mph /  38.9 km/h - -
Wind:- - WNW
Pressure: 30.55 in /  1034.4 hPa 30.39 in /  1029 hPa -
Precipitation: 0.00 in /  0 mm    
Historical Graphs
 
 
Tabular Data for March 4, 2017
Time Temperature Dew Point Pressure Wind Wind Speed Wind Gust Humidity Rainfall Rate (Hourly)
00:00 25.2 °F /  -3.8 °C 7.8 °F /  -13.4 °C 30.39 in /  1029 hPa WNW 8.4 mph /  13.5 km/h 12.7 mph /  20.4 km/h 47 % 0.00 in /  0 mm
00:06 25.1 °F /  -3.8 °C 7.2 °F /  -13.8 °C 30.40 in /  1029.3 hPa NNW 11.6 mph /  18.7 km/h 17.3 mph /  27.8 km/h 46 % 0.00 in /  0 mm
00:11 25.0 °F /  -3.9 °C 7.6 °F /  -13.6 °C 30.40 in /  1029.3 hPa WNW 5.5 mph /  8.9 km/h 12.7 mph /  20.4 km/h 47 % 0.00 in /  0 mm
00:16 24.9 °F /  -3.9 °C 7.0 °F /  -13.9 °C 30.40 in /  1029.3 hPa WNW 9.3 mph /  15 km/h 13.0 mph /  20.9 km/h 46 % 0.00 in /  0 mm
00:21 24.8 °F /  -4 °C 8.3 °F /  -13.2 °C 30.41 in /  1029.7 hPa WNW 8.2 mph /  13.2 km/h 22.0 mph /  35.4 km/h 49 % 0.00 in /  0 mm
00:26 24.8 °F /  -4 °C 7.4 °F /  -13.7 °C 30.41 in /  1029.7 hPa NNW 8.9 mph /  14.3 km/h 23.0 mph /  37 km/h 47 % 0.00 in /  0 mm
00:31 24.7 °F /  -4.1 °C 7.8 °F /  -13.4 °C 30.41 in /  1029.7 hPa NW 5.1 mph /  8.2 km/h 11.5 mph /  18.5 km/h 48 % 0.00 in /  0 mm
00:36 24.7 °F /  -4.1 °C 8.7 °F /  -12.9 °C 30.42 in /  1030 hPa WNW 9.6 mph /  15.4 km/h 19.6 mph /  31.5 km/h 50 % 0.00 in /  0 mm
00:41 24.6 °F /  -4.1 °C 8.1 °F /  -13.3 °C 30.42 in /  1030 hPa WNW 8.9 mph /  14.3 km/h 11.5 mph /  18.5 km/h 49 % 0.00 in /  0 mm
00:46 24.5 °F /  -4.2 °C 8.0 °F /  -13.3 °C 30.42 in /  1030 hPa NW 9.0 mph /  14.5 km/h 18.0 mph /  29 km/h 49 % 0.00 in /  0 mm
00:51 24.5 °F /  -4.2 °C 7.6 °F /  -13.6 °C 30.42 in /  1030 hPa WNW 8.3 mph /  13.4 km/h 19.6 mph /  31.5 km/h 48 % 0.00 in /  0 mm
00:56 24.3 °F /  -4.3 °C 6.5 °F /  -14.2 °C 30.42 in /  1030 hPa NNW 8.2 mph /  13.2 km/h 12.7 mph /  20.4 km/h 46 % 0.00 in /  0 mm
01:01 24.3 °F /  -4.3 °C 7.4 °F /  -13.7 °C 30.42 in /  1030 hPa NW 6.5 mph /  10.5 km/h 12.7 mph /  20.4 km/h 48 % 0.00 in /  0 mm
01:02 24.2 °F /  -4.3 °C 7.8 °F /  -13.4 °C 30.42 in /  1030 hPa WNW 7.1 mph /  11.4 km/h 12.7 mph /  20.4 km/h 49 % 0.00 in /  0 mm
01:07 24.2 °F /  -4.3 °C 7.8 °F /  -13.4 °C 30.42 in /  1030 hPa WNW 3.3 mph /  5.3 km/h 11.5 mph /  18.5 km/h 49 % 0.00 in /  0 mm
01:12 24.1 °F /  -4.4 °C 7.2 °F /  -13.8 °C 30.42 in /  1030 hPa NW 9.2 mph /  14.8 km/h 19.6 mph /  31.5 km/h 48 % 0.00 in /  0 mm
01:17 24.0 °F /  -4.4 °C 7.1 °F /  -13.8 °C 30.42 in /  1030 hPa WSW 8.9 mph /  14.3 km/h 18.4 mph /  29.6 km/h 48 % 0.00 in /  0 mm
01:22 24.0 °F /  -4.4 °C 7.1 °F /  -13.8 °C 30.42 in /  1030 hPa NW 12.7 mph /  20.4 km/h 18.4 mph /  29.6 km/h 48 % 0.00 in /  0 mm
01:27 24.0 °F /  -4.4 °C 7.1 °F /  -13.8 °C 30.42 in /  1030 hPa NW 10.7 mph /  17.2 km/h 16.1 mph /  25.9 km/h 48 % 0.00 in /  0 mm
01:32 23.9 °F /  -4.5 °C 7.5 °F /  -13.6 °C 30.42 in /  1030 hPa NW 7.6 mph /  12.2 km/h 15.0 mph /  24.1 km/h 49 % 0.00 in /  0 mm
01:37 23.8 °F /  -4.6 °C 7.4 °F /  -13.7 °C 30.42 in /  1030 hPa NW 9.9 mph /  15.9 km/h 20.7 mph /  33.3 km/h 49 % 0.00 in /  0 mm
01:42 23.8 °F /  -4.6 °C 6.9 °F /  -13.9 °C 30.42 in /  1030 hPa NW 9.6 mph /  15.4 km/h 17.3 mph /  27.8 km/h 48 % 0.00 in /  0 mm
01:47 23.7 °F /  -4.6 °C 7.3 °F /  -13.7 °C 30.42 in /  1030 hPa North 9.4 mph /  15.1 km/h 17.0 mph /  27.4 km/h 49 % 0.00 in /  0 mm
01:53 23.7 °F /  -4.6 °C 7.3 °F /  -13.7 °C 30.42 in /  1030 hPa WNW 9.5 mph /  15.3 km/h 17.3 mph /  27.8 km/h 49 % 0.00 in /  0 mm
01:58 23.6 °F /  -4.7 °C 7.7 °F /  -13.5 °C 30.42 in /  1030 hPa NW 9.0 mph /  14.5 km/h 15.0 mph /  24.1 km/h 50 % 0.00 in /  0 mm
02:03 23.6 °F /  -4.7 °C 7.7 °F /  -13.5 °C 30.42 in /  1030 hPa NNW 8.5 mph /  13.7 km/h 17.0 mph /  27.4 km/h 50 % 0.00 in /  0 mm
02:08 23.6 °F /  -4.7 °C 7.7 °F /  -13.5 °C 30.42 in /  1030 hPa WNW 6.0 mph /  9.7 km/h 11.0 mph /  17.7 km/h 50 % 0.00 in /  0 mm
02:13 23.6 °F /  -4.7 °C 8.1 °F /  -13.3 °C 30.42 in /  1030 hPa NW 7.7 mph /  12.4 km/h 17.0 mph /  27.4 km/h 51 % 0.00 in /  0 mm
02:18 23.5 °F /  -4.7 °C 7.6 °F /  -13.6 °C 30.42 in /  1030 hPa NW 7.0 mph /  11.3 km/h 17.0 mph /  27.4 km/h 50 % 0.00 in /  0 mm
02:23 23.5 °F /  -4.7 °C 7.6 °F /  -13.6 °C 30.42 in /  1030 hPa NW 6.3 mph /  10.1 km/h 10.4 mph /  16.7 km/h 50 % 0.00 in /  0 mm
02:28 23.4 °F /  -4.8 °C 6.6 °F /  -14.1 °C 30.42 in /  1030 hPa NW 9.0 mph /  14.5 km/h 16.0 mph /  25.7 km/h 48 % 0.00 in /  0 mm
02:33 23.3 °F /  -4.8 °C 6.0 °F /  -14.4 °C 30.41 in /  1029.7 hPa NNW 5.2 mph /  8.4 km/h 15.0 mph /  24.1 km/h 47 % 0.00 in /  0 mm
02:38 23.2 °F /  -4.9 °C 6.3 °F /  -14.3 °C 30.41 in /  1029.7 hPa NW 7.0 mph /  11.3 km/h 16.0 mph /  25.7 km/h 48 % 0.00 in /  0 mm
02:43 23.1 °F /  -4.9 °C 5.8 °F /  -14.6 °C 30.41 in /  1029.7 hPa NW 8.0 mph /  12.9 km/h 17.0 mph /  27.4 km/h 47 % 0.00 in /  0 mm
02:48 23.0 °F /  -5 °C 6.7 °F /  -14.1 °C 30.41 in /  1029.7 hPa NW 7.0 mph /  11.3 km/h 16.0 mph /  25.7 km/h 49 % 0.00 in /  0 mm
02:53 23.0 °F /  -5 °C 6.7 °F /  -14.1 °C 30.41 in /  1029.7 hPa NW 8.0 mph /  12.9 km/h 13.8 mph /  22.2 km/h 49 % 0.00 in /  0 mm
02:58 22.9 °F /  -5.1 °C 7.0 °F /  -13.9 °C 30.41 in /  1029.7 hPa North 8.8 mph /  14.2 km/h 21.0 mph /  33.8 km/h 50 % 0.00 in /  0 mm
03:03 22.9 °F /  -5.1 °C 6.6 °F /  -14.1 °C 30.42 in /  1030 hPa NW 8.6 mph /  13.8 km/h 15.0 mph /  24.1 km/h 49 % 0.00 in /  0 mm
03:08 22.9 °F /  -5.1 °C 7.0 °F /  -13.9 °C 30.41 in /  1029.7 hPa WNW 7.5 mph /  12.1 km/h 13.0 mph /  20.9 km/h 50 % 0.00 in /  0 mm
03:13 22.8 °F /  -5.1 °C 7.8 °F /  -13.4 °C 30.42 in /  1030 hPa NW 11.5 mph /  18.5 km/h 18.4 mph /  29.6 km/h 52 % 0.00 in /  0 mm
03:18 22.7 °F /  -5.2 °C 6.4 °F /  -14.2 °C 30.42 in /  1030 hPa NW 10.9 mph /  17.5 km/h 17.3 mph /  27.8 km/h 49 % 0.00 in /  0 mm
03:24 22.6 °F /  -5.2 °C 6.7 °F /  -14.1 °C 30.42 in /  1030 hPa North 5.7 mph /  9.2 km/h 7.0 mph /  11.3 km/h 50 % 0.00 in /  0 mm
03:29 22.6 °F /  -5.2 °C 7.6 °F /  -13.6 °C 30.42 in /  1030 hPa NNE 7.6 mph /  12.2 km/h 11.5 mph /  18.5 km/h 52 % 0.00 in /  0 mm
03:32 22.6 °F /  -5.2 °C 7.6 °F /  -13.6 °C 30.42 in /  1030 hPa WNW 6.6 mph /  10.6 km/h 11.5 mph /  18.5 km/h 52 % 0.00 in /  0 mm
03:37 22.5 °F /  -5.3 °C 7.1 °F /  -13.8 °C 30.42 in /  1030 hPa WNW 11.5 mph /  18.5 km/h 19.6 mph /  31.5 km/h 51 % 0.00 in /  0 mm
03:42 22.3 °F /  -5.4 °C 6.0 °F /  -14.4 °C 30.42 in /  1030 hPa NW 10.0 mph /  16.1 km/h 17.3 mph /  27.8 km/h 49 % 0.00 in /  0 mm
03:47 22.3 °F /  -5.4 °C 7.3 °F /  -13.7 °C 30.42 in /  1030 hPa NW 5.5 mph /  8.9 km/h 11.0 mph /  17.7 km/h 52 % 0.00 in /  0 mm
03:52 22.2 °F /  -5.4 °C 6.8 °F /  -14 °C 30.42 in /  1030 hPa WNW 9.6 mph /  15.4 km/h 15.0 mph /  24.1 km/h 51 % 0.00 in /  0 mm
03:58 22.1 °F /  -5.5 °C 6.3 °F /  -14.3 °C 30.42 in /  1030 hPa NW 7.8 mph /  12.6 km/h 11.5 mph /  18.5 km/h 50 % 0.00 in /  0 mm
04:03 22.0 °F /  -5.6 °C 6.6 °F /  -14.1 °C 30.43 in /  1030.4 hPa NW 5.2 mph /  8.4 km/h 11.5 mph /  18.5 km/h 51 % 0.00 in /  0 mm
04:08 22.0 °F /  -5.6 °C 7.5 °F /  -13.6 °C 30.43 in /  1030.4 hPa WNW 5.4 mph /  8.7 km/h 13.8 mph /  22.2 km/h 53 % 0.00 in /  0 mm
04:13 22.0 °F /  -5.6 °C 6.6 °F /  -14.1 °C 30.44 in /  1030.7 hPa WNW 8.5 mph /  13.7 km/h 15.0 mph /  24.1 km/h 51 % 0.00 in /  0 mm
04:18 22.0 °F /  -5.6 °C 7.0 °F /  -13.9 °C 30.44 in /  1030.7 hPa NW 6.3 mph /  10.1 km/h 11.5 mph /  18.5 km/h 52 % 0.00 in /  0 mm
04:23 21.9 °F /  -5.6 °C 6.9 °F /  -13.9 °C 30.44 in /  1030.7 hPa NW 6.5 mph /  10.5 km/h 16.1 mph /  25.9 km/h 52 % 0.00 in /  0 mm
04:28 21.8 °F /  -5.7 °C 6.8 °F /  -14 °C 30.44 in /  1030.7 hPa WNW 5.0 mph /  8 km/h 12.0 mph /  19.3 km/h 52 % 0.00 in /  0 mm
04:33 21.8 °F /  -5.7 °C 7.3 °F /  -13.7 °C 30.44 in /  1030.7 hPa WNW 4.5 mph /  7.2 km/h 11.5 mph /  18.5 km/h 53 % 0.00 in /  0 mm
04:38 21.7 °F /  -5.7 °C 7.6 °F /  -13.6 °C 30.44 in /  1030.7 hPa WNW 5.0 mph /  8 km/h 10.4 mph /  16.7 km/h 54 % 0.00 in /  0 mm
04:44 21.7 °F /  -5.7 °C 7.2 °F /  -13.8 °C 30.44 in /  1030.7 hPa NNE 4.4 mph /  7.1 km/h 10.4 mph /  16.7 km/h 53 % 0.00 in /  0 mm
04:48 21.7 °F /  -5.7 °C 7.2 °F /  -13.8 °C 30.44 in /  1030.7 hPa WNW 5.2 mph /  8.4 km/h 11.5 mph /  18.5 km/h 53 % 0.00 in /  0 mm
04:54 21.6 °F /  -5.8 °C 7.5 °F /  -13.6 °C 30.44 in /  1030.7 hPa West 5.4 mph /  8.7 km/h 11.5 mph /  18.5 km/h 54 % 0.00 in /  0 mm
04:59 21.6 °F /  -5.8 °C 7.9 °F /  -13.4 °C 30.44 in /  1030.7 hPa WNW 7.6 mph /  12.2 km/h 13.0 mph /  20.9 km/h 55 % 0.00 in /  0 mm
05:04 21.6 °F /  -5.8 °C 7.1 °F /  -13.8 °C 30.43 in /  1030.4 hPa NNW 2.7 mph /  4.3 km/h 6.9 mph /  11.1 km/h 53 % 0.00 in /  0 mm
05:09 21.5 °F /  -5.8 °C 6.6 °F /  -14.1 °C 30.43 in /  1030.4 hPa NNW 5.2 mph /  8.4 km/h 12.7 mph /  20.4 km/h 52 % 0.00 in /  0 mm
05:14 21.5 °F /  -5.8 °C 7.4 °F /  -13.7 °C 30.44 in /  1030.7 hPa WNW 7.8 mph /  12.6 km/h 7.8 mph /  12.6 km/h 54 % 0.00 in /  0 mm
05:19 21.5 °F /  -5.8 °C 7.4 °F /  -13.7 °C 30.44 in /  1030.7 hPa WSW 5.4 mph /  8.7 km/h 10.4 mph /  16.7 km/h 54 % 0.00 in /  0 mm
05:24 21.5 °F /  -5.8 °C 7.0 °F /  -13.9 °C 30.44 in /  1030.7 hPa WNW 4.0 mph /  6.4 km/h 8.1 mph /  13 km/h 53 % 0.00 in /  0 mm
05:29 21.4 °F /  -5.9 °C 6.9 °F /  -13.9 °C 30.44 in /  1030.7 hPa NW 3.6 mph /  5.8 km/h 8.1 mph /  13 km/h 53 % 0.00 in /  0 mm
05:34 21.4 °F /  -5.9 °C 7.3 °F /  -13.7 °C 30.44 in /  1030.7 hPa NW 7.2 mph /  11.6 km/h 10.4 mph /  16.7 km/h 54 % 0.00 in /  0 mm
05:39 21.4 °F /  -5.9 °C 7.7 °F /  -13.5 °C 30.44 in /  1030.7 hPa WNW 6.4 mph /  10.3 km/h 11.5 mph /  18.5 km/h 55 % 0.00 in /  0 mm
05:44 21.4 °F /  -5.9 °C 7.7 °F /  -13.5 °C 30.45 in /  1031 hPa West 3.9 mph /  6.3 km/h 9.2 mph /  14.8 km/h 55 % 0.00 in /  0 mm
05:49 21.3 °F /  -5.9 °C 7.2 °F /  -13.8 °C 30.45 in /  1031 hPa WNW 7.1 mph /  11.4 km/h 16.0 mph /  25.7 km/h 54 % 0.00 in /  0 mm
05:55 21.2 °F /  -6 °C 7.1 °F /  -13.8 °C 30.45 in /  1031 hPa WSW 6.4 mph /  10.3 km/h 11.5 mph /  18.5 km/h 54 % 0.00 in /  0 mm
06:00 21.2 °F /  -6 °C 7.5 °F /  -13.6 °C 30.45 in /  1031 hPa WNW 7.6 mph /  12.2 km/h 11.5 mph /  18.5 km/h 55 % 0.00 in /  0 mm
06:05 21.2 °F /  -6 °C 7.5 °F /  -13.6 °C 30.45 in /  1031 hPa WNW 3.0 mph /  4.8 km/h 5.0 mph /  8 km/h 55 % 0.00 in /  0 mm
06:10 21.2 °F /  -6 °C 7.5 °F /  -13.6 °C 30.45 in /  1031 hPa WSW 3.3 mph /  5.3 km/h 9.0 mph /  14.5 km/h 55 % 0.00 in /  0 mm
06:15 21.1 °F /  -6.1 °C 7.4 °F /  -13.7 °C 30.45 in /  1031 hPa NW 5.4 mph /  8.7 km/h 9.2 mph /  14.8 km/h 55 % 0.00 in /  0 mm
06:20 21.1 °F /  -6.1 °C 7.8 °F /  -13.4 °C 30.46 in /  1031.4 hPa WNW 6.9 mph /  11.1 km/h 15.0 mph /  24.1 km/h 56 % 0.00 in /  0 mm
06:30 21.1 °F /  -6.1 °C 7.8 °F /  -13.4 °C 30.46 in /  1031.4 hPa WNW 4.2 mph /  6.8 km/h 8.1 mph /  13 km/h 56 % 0.00 in /  0 mm
06:35 21.1 °F /  -6.1 °C 8.2 °F /  -13.2 °C 30.46 in /  1031.4 hPa WNW 3.8 mph /  6.1 km/h 8.1 mph /  13 km/h 57 % 0.00 in /  0 mm
06:40 21.2 °F /  -6 °C 7.9 °F /  -13.4 °C 30.46 in /  1031.4 hPa WNW 3.8 mph /  6.1 km/h 8.1 mph /  13 km/h 56 % 0.00 in /  0 mm
06:41 21.2 °F /  -6 °C 7.9 °F /  -13.4 °C 30.46 in /  1031.4 hPa West 4.7 mph /  7.6 km/h 8.1 mph /  13 km/h 56 % 0.00 in /  0 mm
06:46 21.3 °F /  -5.9 °C 8.4 °F /  -13.1 °C 30.47 in /  1031.7 hPa NW 4.0 mph /  6.4 km/h 9.2 mph /  14.8 km/h 57 % 0.00 in /  0 mm
06:51 21.4 °F /  -5.9 °C 8.5 °F /  -13.1 °C 30.47 in /  1031.7 hPa WSW 4.0 mph /  6.4 km/h 8.0 mph /  12.9 km/h 57 % 0.00 in /  0 mm
06:56 21.5 °F /  -5.8 °C 8.6 °F /  -13 °C 30.47 in /  1031.7 hPa WNW 4.6 mph /  7.4 km/h 8.0 mph /  12.9 km/h 57 % 0.00 in /  0 mm
07:01 21.6 °F /  -5.8 °C 8.3 °F /  -13.2 °C 30.46 in /  1031.4 hPa WNW 5.3 mph /  8.5 km/h 11.5 mph /  18.5 km/h 56 % 0.00 in /  0 mm
07:06 21.6 °F /  -5.8 °C 7.9 °F /  -13.4 °C 30.47 in /  1031.7 hPa WNW 3.5 mph /  5.6 km/h 9.2 mph /  14.8 km/h 55 % 0.00 in /  0 mm
07:11 21.6 °F /  -5.8 °C 8.3 °F /  -13.2 °C 30.47 in /  1031.7 hPa WNW 3.2 mph /  5.1 km/h 4.6 mph /  7.4 km/h 56 % 0.00 in /  0 mm
07:16 21.8 °F /  -5.7 °C 8.5 °F /  -13.1 °C 30.47 in /  1031.7 hPa WSW 3.6 mph /  5.8 km/h 6.9 mph /  11.1 km/h 56 % 0.00 in /  0 mm
07:18 21.9 °F /  -5.6 °C 8.2 °F /  -13.2 °C 30.47 in /  1031.7 hPa WNW 3.6 mph /  5.8 km/h 9.2 mph /  14.8 km/h 55 % 0.00 in /  0 mm
07:23 22.1 °F /  -5.5 °C 8.4 °F /  -13.1 °C 30.47 in /  1031.7 hPa West 4.2 mph /  6.8 km/h 8.1 mph /  13 km/h 55 % 0.00 in /  0 mm
07:28 22.3 °F /  -5.4 °C 8.6 °F /  -13 °C 30.48 in /  1032.1 hPa WNW 8.0 mph /  12.9 km/h 12.0 mph /  19.3 km/h 55 % 0.00 in /  0 mm
07:33 22.4 °F /  -5.3 °C 8.7 °F /  -12.9 °C 30.48 in /  1032.1 hPa WNW 3.0 mph /  4.8 km/h 12.0 mph /  19.3 km/h 55 % 0.00 in /  0 mm
07:38 22.6 °F /  -5.2 °C 9.2 °F /  -12.7 °C 30.48 in /  1032.1 hPa WNW 5.0 mph /  8 km/h 10.0 mph /  16.1 km/h 56 % 0.00 in /  0 mm
07:43 22.9 °F /  -5.1 °C 9.5 °F /  -12.5 °C 30.48 in /  1032.1 hPa WNW 8.0 mph /  12.9 km/h 14.0 mph /  22.5 km/h 56 % 0.00 in /  0 mm
07:48 23.0 °F /  -5 °C 9.3 °F /  -12.6 °C 30.48 in /  1032.1 hPa West 9.0 mph /  14.5 km/h 15.0 mph /  24.1 km/h 55 % 0.00 in /  0 mm
07:53 23.1 °F /  -4.9 °C 8.9 °F /  -12.8 °C 30.48 in /  1032.1 hPa West 6.0 mph /  9.7 km/h 14.0 mph /  22.5 km/h 54 % 0.00 in /  0 mm
07:58 23.2 °F /  -4.9 °C 9.0 °F /  -12.8 °C 30.48 in /  1032.1 hPa NW 2.6 mph /  4.2 km/h 9.2 mph /  14.8 km/h 54 % 0.00 in /  0 mm
08:03 23.3 °F /  -4.8 °C 9.5 °F /  -12.5 °C 30.48 in /  1032.1 hPa NW 3.0 mph /  4.8 km/h 6.9 mph /  11.1 km/h 55 % 0.00 in /  0 mm
08:08 23.3 °F /  -4.8 °C 9.1 °F /  -12.7 °C 30.48 in /  1032.1 hPa WNW 6.0 mph /  9.7 km/h 12.0 mph /  19.3 km/h 54 % 0.00 in /  0 mm
08:13 23.4 °F /  -4.8 °C 9.6 °F /  -12.4 °C 30.49 in /  1032.4 hPa West 4.1 mph /  6.6 km/h 8.1 mph /  13 km/h 55 % 0.00 in /  0 mm
08:18 23.4 °F /  -4.8 °C 8.8 °F /  -12.9 °C 30.48 in /  1032.1 hPa WNW 5.0 mph /  8 km/h 10.0 mph /  16.1 km/h 53 % 0.00 in /  0 mm
08:23 23.4 °F /  -4.8 °C 8.8 °F /  -12.9 °C 30.48 in /  1032.1 hPa WNW 5.0 mph /  8 km/h 10.4 mph /  16.7 km/h 53 % 0.00 in /  0 mm
08:28 23.4 °F /  -4.8 °C 9.2 °F /  -12.7 °C 30.48 in /  1032.1 hPa WNW 6.0 mph /  9.7 km/h 16.0 mph /  25.7 km/h 54 % 0.00 in /  0 mm
08:33 23.5 °F /  -4.7 °C 9.7 °F /  -12.4 °C 30.48 in /  1032.1 hPa WSW 5.0 mph /  8 km/h 11.5 mph /  18.5 km/h 55 % 0.00 in /  0 mm
08:38 23.5 °F /  -4.7 °C 10.1 °F /  -12.2 °C 30.48 in /  1032.1 hPa West 7.0 mph /  11.3 km/h 15.0 mph /  24.1 km/h 56 % 0.00 in /  0 mm
08:43 23.4 °F /  -4.8 °C 10.0 °F /  -12.2 °C 30.48 in /  1032.1 hPa West 6.0 mph /  9.7 km/h 10.0 mph /  16.1 km/h 56 % 0.00 in /  0 mm
08:48 23.3 °F /  -4.8 °C 9.5 °F /  -12.5 °C 30.48 in /  1032.1 hPa West 6.0 mph /  9.7 km/h 16.0 mph /  25.7 km/h 55 % 0.00 in /  0 mm
08:53 23.4 °F /  -4.8 °C 9.6 °F /  -12.4 °C 30.47 in /  1031.7 hPa WNW 7.8 mph /  12.6 km/h 15.0 mph /  24.1 km/h 55 % 0.00 in /  0 mm
08:58 23.7 °F /  -4.6 °C 9.0 °F /  -12.8 °C 30.47 in /  1031.7 hPa WNW 7.7 mph /  12.4 km/h 12.7 mph /  20.4 km/h 53 % 0.00 in /  0 mm
09:03 23.9 °F /  -4.5 °C 8.4 °F /  -13.1 °C 30.47 in /  1031.7 hPa WNW 6.0 mph /  9.7 km/h 10.4 mph /  16.7 km/h 51 % 0.00 in /  0 mm
09:08 24.4 °F /  -4.2 °C 10.1 °F /  -12.2 °C 30.47 in /  1031.7 hPa West 5.0 mph /  8 km/h 12.0 mph /  19.3 km/h 54 % 0.00 in /  0 mm
09:13 24.6 °F /  -4.1 °C 9.5 °F /  -12.5 °C 30.47 in /  1031.7 hPa WNW 8.1 mph /  13 km/h 17.3 mph /  27.8 km/h 52 % 0.00 in /  0 mm
09:18 24.9 °F /  -3.9 °C 8.9 °F /  -12.8 °C 30.47 in /  1031.7 hPa WNW 6.0 mph /  9.7 km/h 11.5 mph /  18.5 km/h 50 % 0.00 in /  0 mm
09:23 25.2 °F /  -3.8 °C 9.1 °F /  -12.7 °C 30.47 in /  1031.7 hPa WNW 8.1 mph /  13 km/h 13.8 mph /  22.2 km/h 50 % 0.00 in /  0 mm
09:29 25.3 °F /  -3.7 °C 9.2 °F /  -12.7 °C 30.47 in /  1031.7 hPa NW 7.9 mph /  12.7 km/h 11.5 mph /  18.5 km/h 50 % 0.00 in /  0 mm
09:34 25.6 °F /  -3.6 °C 9.5 °F /  -12.5 °C 30.47 in /  1031.7 hPa NW 5.5 mph /  8.9 km/h 15.0 mph /  24.1 km/h 50 % 0.00 in /  0 mm
09:39 25.8 °F /  -3.4 °C 10.1 °F /  -12.2 °C 30.47 in /  1031.7 hPa NW 7.3 mph /  11.7 km/h 16.1 mph /  25.9 km/h 51 % 0.00 in /  0 mm
09:44 26.0 °F /  -3.3 °C 10.3 °F /  -12.1 °C 30.47 in /  1031.7 hPa NNW 6.7 mph /  10.8 km/h 11.5 mph /  18.5 km/h 51 % 0.00 in /  0 mm
09:45 26.0 °F /  -3.3 °C 10.3 °F /  -12.1 °C 30.47 in /  1031.7 hPa NNW 2.6 mph /  4.2 km/h 12.7 mph /  20.4 km/h 51 % 0.00 in /  0 mm
09:50 26.2 °F /  -3.2 °C 10.1 °F /  -12.2 °C 30.47 in /  1031.7 hPa NNW 3.9 mph /  6.3 km/h 11.5 mph /  18.5 km/h 50 % 0.00 in /  0 mm
09:55 26.3 °F /  -3.2 °C 10.6 °F /  -11.9 °C 30.46 in /  1031.4 hPa WSW 4.3 mph /  6.9 km/h 13.0 mph /  20.9 km/h 51 % 0.00 in /  0 mm
10:00 26.5 °F /  -3.1 °C 10.3 °F /  -12.1 °C 30.46 in /  1031.4 hPa NNW 3.7 mph /  6 km/h 9.2 mph /  14.8 km/h 50 % 0.00 in /  0 mm
10:05 26.8 °F /  -2.9 °C 10.6 °F /  -11.9 °C 30.46 in /  1031.4 hPa NNW 8.0 mph /  12.9 km/h 11.5 mph /  18.5 km/h 50 % 0.00 in /  0 mm
10:10 26.9 °F /  -2.8 °C 10.7 °F /  -11.8 °C 30.46 in /  1031.4 hPa NNW 6.8 mph /  10.9 km/h 10.4 mph /  16.7 km/h 50 % 0.00 in /  0 mm
10:15 27.1 °F /  -2.7 °C 10.4 °F /  -12 °C 30.46 in /  1031.4 hPa WNW 4.2 mph /  6.8 km/h 10.4 mph /  16.7 km/h 49 % 0.00 in /  0 mm
10:20 27.2 °F /  -2.7 °C 10.5 °F /  -11.9 °C 30.45 in /  1031 hPa WNW 6.5 mph /  10.5 km/h 19.6 mph /  31.5 km/h 49 % 0.00 in /  0 mm
10:26 27.2 °F /  -2.7 °C 11.0 °F /  -11.7 °C 30.45 in /  1031 hPa WNW 7.1 mph /  11.4 km/h 13.0 mph /  20.9 km/h 50 % 0.00 in /  0 mm
10:31 27.4 °F /  -2.6 °C 10.7 °F /  -11.8 °C 30.45 in /  1031 hPa WNW 3.9 mph /  6.3 km/h 11.5 mph /  18.5 km/h 49 % 0.00 in /  0 mm
10:36 27.6 °F /  -2.4 °C 10.4 °F /  -12 °C 30.45 in /  1031 hPa NNW 8.7 mph /  14 km/h 11.5 mph /  18.5 km/h 48 % 0.00 in /  0 mm
10:41 28.0 °F /  -2.2 °C 10.8 °F /  -11.8 °C 30.45 in /  1031 hPa WSW 6.1 mph /  9.8 km/h 13.8 mph /  22.2 km/h 48 % 0.00 in /  0 mm
10:46 28.2 °F /  -2.1 °C 11.0 °F /  -11.7 °C 30.45 in /  1031 hPa NW 4.4 mph /  7.1 km/h 11.0 mph /  17.7 km/h 48 % 0.00 in /  0 mm
10:51 28.1 °F /  -2.2 °C 11.4 °F /  -11.4 °C 30.45 in /  1031 hPa NW 3.8 mph /  6.1 km/h 16.1 mph /  25.9 km/h 49 % 0.00 in /  0 mm
10:56 28.0 °F /  -2.2 °C 10.8 °F /  -11.8 °C 30.45 in /  1031 hPa WNW 5.5 mph /  8.9 km/h 11.5 mph /  18.5 km/h 48 % 0.00 in /  0 mm
11:01 27.9 °F /  -2.3 °C 11.2 °F /  -11.6 °C 30.45 in /  1031 hPa NW 9.9 mph /  15.9 km/h 20.7 mph /  33.3 km/h 49 % 0.00 in /  0 mm
11:06 27.9 °F /  -2.3 °C 11.6 °F /  -11.3 °C 30.44 in /  1030.7 hPa West 6.4 mph /  10.3 km/h 11.5 mph /  18.5 km/h 50 % 0.00 in /  0 mm
11:11 27.7 °F /  -2.4 °C 10.5 °F /  -11.9 °C 30.45 in /  1031 hPa WNW 8.3 mph /  13.4 km/h 18.4 mph /  29.6 km/h 48 % 0.00 in /  0 mm
11:16 27.9 °F /  -2.3 °C 10.2 °F /  -12.1 °C 30.44 in /  1030.7 hPa WNW 8.0 mph /  12.9 km/h 12.7 mph /  20.4 km/h 47 % 0.00 in /  0 mm
11:21 28.3 °F /  -2.1 °C 9.6 °F /  -12.4 °C 30.44 in /  1030.7 hPa NNW 6.3 mph /  10.1 km/h 10.0 mph /  16.1 km/h 45 % 0.00 in /  0 mm
11:27 28.0 °F /  -2.2 °C 10.3 °F /  -12.1 °C 30.44 in /  1030.7 hPa WNW 8.3 mph /  13.4 km/h 12.7 mph /  20.4 km/h 47 % 0.00 in /  0 mm
11:32 27.8 °F /  -2.3 °C 9.7 °F /  -12.4 °C 30.44 in /  1030.7 hPa NW 2.9 mph /  4.7 km/h 9.2 mph /  14.8 km/h 46 % 0.00 in /  0 mm
11:37 27.7 °F /  -2.4 °C 10.5 °F /  -11.9 °C 30.44 in /  1030.7 hPa NW 8.4 mph /  13.5 km/h 14.0 mph /  22.5 km/h 48 % 0.00 in /  0 mm
11:42 27.8 °F /  -2.3 °C 9.7 °F /  -12.4 °C 30.44 in /  1030.7 hPa WNW 8.3 mph /  13.4 km/h 11.5 mph /  18.5 km/h 46 % 0.00 in /  0 mm
11:47 27.7 °F /  -2.4 °C 9.6 °F /  -12.4 °C 30.44 in /  1030.7 hPa WNW 8.0 mph /  12.9 km/h 12.7 mph /  20.4 km/h 46 % 0.00 in /  0 mm
11:52 27.7 °F /  -2.4 °C 10.1 °F /  -12.2 °C 30.43 in /  1030.4 hPa NW 6.2 mph /  10 km/h 11.5 mph /  18.5 km/h 47 % 0.00 in /  0 mm
11:57 28.1 °F /  -2.2 °C 11.4 °F /  -11.4 °C 30.44 in /  1030.7 hPa NNW 6.4 mph /  10.3 km/h 13.8 mph /  22.2 km/h 49 % 0.00 in /  0 mm
12:02 28.6 °F /  -1.9 °C 11.8 °F /  -11.2 °C 30.44 in /  1030.7 hPa NNW 8.1 mph /  13 km/h 15.0 mph /  24.1 km/h 49 % 0.00 in /  0 mm
12:07 28.7 °F /  -1.8 °C 11.9 °F /  -11.2 °C 30.43 in /  1030.4 hPa NW 8.3 mph /  13.4 km/h 15.0 mph /  24.1 km/h 49 % 0.00 in /  0 mm
12:12 28.4 °F /  -2 °C 12.6 °F /  -10.8 °C 30.44 in /  1030.7 hPa NW 9.5 mph /  15.3 km/h 19.6 mph /  31.5 km/h 51 % 0.00 in /  0 mm
12:17 28.4 °F /  -2 °C 13.0 °F /  -10.6 °C 30.43 in /  1030.4 hPa NW 9.0 mph /  14.5 km/h 15.0 mph /  24.1 km/h 52 % 0.00 in /  0 mm
12:22 28.5 °F /  -1.9 °C 12.6 °F /  -10.8 °C 30.43 in /  1030.4 hPa NNW 8.7 mph /  14 km/h 19.6 mph /  31.5 km/h 51 % 0.00 in /  0 mm
12:28 28.6 °F /  -1.9 °C 12.3 °F /  -10.9 °C 30.42 in /  1030 hPa WNW 7.0 mph /  11.3 km/h 7.0 mph /  11.3 km/h 50 % 0.00 in /  0 mm
12:33 28.5 °F /  -1.9 °C 11.3 °F /  -11.5 °C 30.42 in /  1030 hPa WNW 6.7 mph /  10.8 km/h 11.5 mph /  18.5 km/h 48 % 0.00 in /  0 mm
12:38 28.7 °F /  -1.8 °C 11.9 °F /  -11.2 °C 30.42 in /  1030 hPa SW 11.2 mph /  18 km/h 15.0 mph /  24.1 km/h 49 % 0.00 in /  0 mm
12:43 29.3 °F /  -1.5 °C 12.0 °F /  -11.1 °C 30.42 in /  1030 hPa West 8.7 mph /  14 km/h 16.1 mph /  25.9 km/h 48 % 0.00 in /  0 mm
12:48 29.7 °F /  -1.3 °C 11.4 °F /  -11.4 °C 30.42 in /  1030 hPa WNW 9.0 mph /  14.5 km/h 20.0 mph /  32.2 km/h 46 % 0.00 in /  0 mm
12:53 29.9 °F /  -1.2 °C 11.6 °F /  -11.3 °C 30.42 in /  1030 hPa NW 12.0 mph /  19.3 km/h 23.0 mph /  37 km/h 46 % 0.00 in /  0 mm
12:58 29.8 °F /  -1.2 °C 11.5 °F /  -11.4 °C 30.42 in /  1030 hPa NNW 10.2 mph /  16.4 km/h 19.6 mph /  31.5 km/h 46 % 0.00 in /  0 mm
13:03 29.4 °F /  -1.4 °C 10.1 °F /  -12.2 °C 30.41 in /  1029.7 hPa WNW 8.6 mph /  13.8 km/h 16.1 mph /  25.9 km/h 44 % 0.00 in /  0 mm
13:08 29.4 °F /  -1.4 °C 11.1 °F /  -11.6 °C 30.41 in /  1029.7 hPa West 9.5 mph /  15.3 km/h 17.3 mph /  27.8 km/h 46 % 0.00 in /  0 mm
13:13 29.7 °F /  -1.3 °C 10.4 °F /  -12 °C 30.41 in /  1029.7 hPa NNW 10.5 mph /  16.9 km/h 21.0 mph /  33.8 km/h 44 % 0.00 in /  0 mm
13:18 29.5 °F /  -1.4 °C 9.7 °F /  -12.4 °C 30.41 in /  1029.7 hPa WNW 10.2 mph /  16.4 km/h 17.3 mph /  27.8 km/h 43 % 0.00 in /  0 mm
13:23 29.3 °F /  -1.5 °C 9.5 °F /  -12.5 °C 30.40 in /  1029.3 hPa NW 10.0 mph /  16.1 km/h 21.9 mph /  35.2 km/h 43 % 0.00 in /  0 mm
13:28 29.8 °F /  -1.2 °C 11.0 °F /  -11.7 °C 30.40 in /  1029.3 hPa WNW 12.6 mph /  20.3 km/h 19.6 mph /  31.5 km/h 45 % 0.00 in /  0 mm
13:34 30.1 °F /  -1.1 °C 9.7 °F /  -12.4 °C 30.40 in /  1029.3 hPa WNW 13.2 mph /  21.2 km/h 23.0 mph /  37 km/h 42 % 0.00 in /  0 mm
13:39 30.2 °F /  -1 °C 10.4 °F /  -12 °C 30.39 in /  1029 hPa NW 10.0 mph /  16.1 km/h 18.0 mph /  29 km/h 43 % 0.00 in /  0 mm
13:44 30.4 °F /  -0.9 °C 10.5 °F /  -11.9 °C 30.40 in /  1029.3 hPa West 12.8 mph /  20.6 km/h 15.0 mph /  24.1 km/h 43 % 0.00 in /  0 mm
13:49 30.7 °F /  -0.7 °C 11.3 °F /  -11.5 °C 30.40 in /  1029.3 hPa WNW 6.9 mph /  11.1 km/h 9.2 mph /  14.8 km/h 44 % 0.00 in /  0 mm
13:54 30.6 °F /  -0.8 °C 9.7 °F /  -12.4 °C 30.40 in /  1029.3 hPa West 13.3 mph /  21.4 km/h 19.6 mph /  31.5 km/h 41 % 0.00 in /  0 mm
13:59 30.5 °F /  -0.8 °C 9.6 °F /  -12.4 °C 30.40 in /  1029.3 hPa NW 14.7 mph /  23.7 km/h 24.2 mph /  38.9 km/h 41 % 0.00 in /  0 mm
14:04 30.3 °F /  -0.9 °C 8.8 °F /  -12.9 °C 30.40 in /  1029.3 hPa WSW 10.4 mph /  16.7 km/h 24.2 mph /  38.9 km/h 40 % 0.00 in /  0 mm
14:09 30.3 °F /  -0.9 °C 8.3 °F /  -13.2 °C 30.40 in /  1029.3 hPa West 11.9 mph /  19.2 km/h 19.6 mph /  31.5 km/h 39 % 0.00 in /  0 mm
14:14 30.4 °F /  -0.9 °C 8.4 °F /  -13.1 °C 30.40 in /  1029.3 hPa West 8.2 mph /  13.2 km/h 23.0 mph /  37 km/h 39 % 0.00 in /  0 mm
14:19 30.8 °F /  -0.7 °C 10.4 °F /  -12 °C 30.40 in /  1029.3 hPa WNW 12.9 mph /  20.8 km/h 21.9 mph /  35.2 km/h 42 % 0.00 in /  0 mm
14:24 31.0 °F /  -0.6 °C 8.9 °F /  -12.8 °C 30.40 in /  1029.3 hPa WNW 8.6 mph /  13.8 km/h 19.6 mph /  31.5 km/h 39 % 0.00 in /  0 mm
14:29 31.0 °F /  -0.6 °C 9.5 °F /  -12.5 °C 30.40 in /  1029.3 hPa WNW 10.6 mph /  17.1 km/h 20.0 mph /  32.2 km/h 40 % 0.00 in /  0 mm
14:34 30.8 °F /  -0.7 °C 9.3 °F /  -12.6 °C 30.41 in /  1029.7 hPa NW 10.4 mph /  16.7 km/h 19.6 mph /  31.5 km/h 40 % 0.00 in /  0 mm
14:39 30.5 °F /  -0.8 °C 6.1 °F /  -14.4 °C 30.41 in /  1029.7 hPa NNW 9.8 mph /  15.8 km/h 19.6 mph /  31.5 km/h 35 % 0.00 in /  0 mm
14:45 30.0 °F /  -1.1 °C 6.8 °F /  -14 °C 30.40 in /  1029.3 hPa WNW 9.5 mph /  15.3 km/h 18.4 mph /  29.6 km/h 37 % 0.00 in /  0 mm
14:50 29.5 °F /  -1.4 °C 5.8 °F /  -14.6 °C 30.40 in /  1029.3 hPa WNW 14.7 mph /  23.7 km/h 21.9 mph /  35.2 km/h 36 % 0.00 in /  0 mm
14:55 29.3 °F /  -1.5 °C 7.4 °F /  -13.7 °C 30.41 in /  1029.7 hPa NNW 11.0 mph /  17.7 km/h 23.0 mph /  37 km/h 39 % 0.00 in /  0 mm
14:58 29.4 °F /  -1.4 °C 8.0 °F /  -13.3 °C 30.41 in /  1029.7 hPa NNW 9.6 mph /  15.4 km/h 17.3 mph /  27.8 km/h 40 % 0.00 in /  0 mm
15:03 29.4 °F /  -1.4 °C 6.3 °F /  -14.3 °C 30.40 in /  1029.3 hPa NW 8.1 mph /  13 km/h 13.8 mph /  22.2 km/h 37 % 0.00 in /  0 mm
15:08 29.3 °F /  -1.5 °C 6.8 °F /  -14 °C 30.40 in /  1029.3 hPa NW 13.5 mph /  21.7 km/h 23.0 mph /  37 km/h 38 % 0.00 in /  0 mm
15:13 29.2 °F /  -1.6 °C 5.5 °F /  -14.7 °C 30.40 in /  1029.3 hPa NW 11.4 mph /  18.3 km/h 19.6 mph /  31.5 km/h 36 % 0.00 in /  0 mm
15:18 28.9 °F /  -1.7 °C 5.2 °F /  -14.9 °C 30.41 in /  1029.7 hPa NW 12.7 mph /  20.4 km/h 20.7 mph /  33.3 km/h 36 % 0.00 in /  0 mm
15:23 28.8 °F /  -1.8 °C 5.2 °F /  -14.9 °C 30.40 in /  1029.3 hPa NW 8.7 mph /  14 km/h 13.0 mph /  20.9 km/h 36 % 0.00 in /  0 mm
15:29 28.7 °F /  -1.8 °C 5.1 °F /  -14.9 °C 30.40 in /  1029.3 hPa NNW 8.1 mph /  13 km/h 18.4 mph /  29.6 km/h 36 % 0.00 in /  0 mm
15:34 28.6 °F /  -1.9 °C 4.4 °F /  -15.3 °C 30.41 in /  1029.7 hPa West 6.1 mph /  9.8 km/h 19.6 mph /  31.5 km/h 35 % 0.00 in /  0 mm
15:39 28.7 °F /  -1.8 °C 5.1 °F /  -14.9 °C 30.41 in /  1029.7 hPa West 9.2 mph /  14.8 km/h 16.1 mph /  25.9 km/h 36 % 0.00 in /  0 mm
15:44 28.7 °F /  -1.8 °C 4.5 °F /  -15.3 °C 30.41 in /  1029.7 hPa NNW 5.7 mph /  9.2 km/h 18.4 mph /  29.6 km/h 35 % 0.00 in /  0 mm
15:49 28.6 °F /  -1.9 °C 4.4 °F /  -15.3 °C 30.41 in /  1029.7 hPa NW 9.0 mph /  14.5 km/h 17.3 mph /  27.8 km/h 35 % 0.00 in /  0 mm
15:54 28.5 °F /  -1.9 °C 3.6 °F /  -15.8 °C 30.41 in /  1029.7 hPa NW 9.6 mph /  15.4 km/h 19.0 mph /  30.6 km/h 34 % 0.00 in /  0 mm
15:59 28.4 °F /  -2 °C 4.2 °F /  -15.4 °C 30.41 in /  1029.7 hPa WNW 11.1 mph /  17.9 km/h 19.6 mph /  31.5 km/h 35 % 0.00 in /  0 mm
16:04 28.2 °F /  -2.1 °C 3.4 °F /  -15.9 °C 30.41 in /  1029.7 hPa WNW 7.0 mph /  11.3 km/h 16.1 mph /  25.9 km/h 34 % 0.00 in /  0 mm
16:09 28.1 °F /  -2.2 °C 3.9 °F /  -15.6 °C 30.41 in /  1029.7 hPa NNW 10.8 mph /  17.4 km/h 18.4 mph /  29.6 km/h 35 % 0.00 in /  0 mm
16:14 28.0 °F /  -2.2 °C 4.4 °F /  -15.3 °C 30.41 in /  1029.7 hPa North 4.7 mph /  7.6 km/h 15.0 mph /  24.1 km/h 36 % 0.00 in /  0 mm
16:19 28.1 °F /  -2.2 °C 3.9 °F /  -15.6 °C 30.41 in /  1029.7 hPa North 10.0 mph /  16.1 km/h 15.0 mph /  24.1 km/h 35 % 0.00 in /  0 mm
16:24 28.0 °F /  -2.2 °C 5.0 °F /  -15 °C 30.42 in /  1030 hPa NNW 10.7 mph /  17.2 km/h 21.0 mph /  33.8 km/h 37 % 0.00 in /  0 mm
16:29 27.9 °F /  -2.3 °C 5.0 °F /  -15 °C 30.42 in /  1030 hPa WNW 5.9 mph /  9.5 km/h 11.5 mph /  18.5 km/h 37 % 0.00 in /  0 mm
16:34 27.8 °F /  -2.3 °C 4.3 °F /  -15.4 °C 30.43 in /  1030.4 hPa North 9.1 mph /  14.6 km/h 18.4 mph /  29.6 km/h 36 % 0.00 in /  0 mm
16:39 27.7 °F /  -2.4 °C 5.4 °F /  -14.8 °C 30.42 in /  1030 hPa NNW 5.6 mph /  9 km/h 15.0 mph /  24.1 km/h 38 % 0.00 in /  0 mm
16:45 27.6 °F /  -2.4 °C 4.7 °F /  -15.2 °C 30.43 in /  1030.4 hPa North 6.6 mph /  10.6 km/h 15.0 mph /  24.1 km/h 37 % 0.00 in /  0 mm
16:50 27.5 °F /  -2.5 °C 4.6 °F /  -15.2 °C 30.43 in /  1030.4 hPa NW 6.6 mph /  10.6 km/h 11.5 mph /  18.5 km/h 37 % 0.00 in /  0 mm
16:55 27.4 °F /  -2.6 °C 4.5 °F /  -15.3 °C 30.44 in /  1030.7 hPa NNW 9.4 mph /  15.1 km/h 16.1 mph /  25.9 km/h 37 % 0.00 in /  0 mm
17:00 27.2 °F /  -2.7 °C 3.7 °F /  -15.7 °C 30.44 in /  1030.7 hPa WNW 9.6 mph /  15.4 km/h 16.1 mph /  25.9 km/h 36 % 0.00 in /  0 mm
17:05 27.0 °F /  -2.8 °C 2.9 °F /  -16.2 °C 30.44 in /  1030.7 hPa NNW 7.8 mph /  12.6 km/h 15.0 mph /  24.1 km/h 35 % 0.00 in /  0 mm
17:10 26.9 °F /  -2.8 °C 2.8 °F /  -16.2 °C 30.44 in /  1030.7 hPa North 9.7 mph /  15.6 km/h 19.6 mph /  31.5 km/h 35 % 0.00 in /  0 mm
17:15 26.7 °F /  -2.9 °C 2.0 °F /  -16.7 °C 30.45 in /  1031 hPa NNW 9.5 mph /  15.3 km/h 16.1 mph /  25.9 km/h 34 % 0.00 in /  0 mm
17:20 26.5 °F /  -3.1 °C 1.9 °F /  -16.7 °C 30.45 in /  1031 hPa SW 11.1 mph /  17.9 km/h 19.6 mph /  31.5 km/h 34 % 0.00 in /  0 mm
17:26 26.4 °F /  -3.1 °C 3.0 °F /  -16.1 °C 30.45 in /  1031 hPa NW 8.6 mph /  13.8 km/h 16.1 mph /  25.9 km/h 36 % 0.00 in /  0 mm
17:31 26.3 °F /  -3.2 °C 2.3 °F /  -16.5 °C 30.46 in /  1031.4 hPa NNW 8.4 mph /  13.5 km/h 19.6 mph /  31.5 km/h 35 % 0.00 in /  0 mm
17:36 26.2 °F /  -3.2 °C 2.8 °F /  -16.2 °C 30.46 in /  1031.4 hPa NW 7.0 mph /  11.3 km/h 16.1 mph /  25.9 km/h 36 % 0.00 in /  0 mm
17:41 26.1 °F /  -3.3 °C 2.1 °F /  -16.6 °C 30.46 in /  1031.4 hPa NW 8.0 mph /  12.9 km/h 11.5 mph /  18.5 km/h 35 % 0.00 in /  0 mm
17:46 26.0 °F /  -3.3 °C 4.4 °F /  -15.3 °C 30.46 in /  1031.4 hPa NW 8.6 mph /  13.8 km/h 19.6 mph /  31.5 km/h 39 % 0.00 in /  0 mm
17:51 25.8 °F /  -3.4 °C 2.5 °F /  -16.4 °C 30.46 in /  1031.4 hPa WNW 11.5 mph /  18.5 km/h 11.5 mph /  18.5 km/h 36 % 0.00 in /  0 mm
17:56 25.7 °F /  -3.5 °C 1.8 °F /  -16.8 °C 30.47 in /  1031.7 hPa NNW 9.5 mph /  15.3 km/h 15.0 mph /  24.1 km/h 35 % 0.00 in /  0 mm
18:01 25.6 °F /  -3.6 °C 1.7 °F /  -16.8 °C 30.48 in /  1032.1 hPa West 7.6 mph /  12.2 km/h 18.4 mph /  29.6 km/h 35 % 0.00 in /  0 mm
18:06 25.4 °F /  -3.7 °C 1.5 °F /  -16.9 °C 30.48 in /  1032.1 hPa NNW 7.5 mph /  12.1 km/h 10.4 mph /  16.7 km/h 35 % 0.00 in /  0 mm
18:11 25.3 °F /  -3.7 °C 2.0 °F /  -16.7 °C 30.48 in /  1032.1 hPa NW 6.7 mph /  10.8 km/h 13.8 mph /  22.2 km/h 36 % 0.00 in /  0 mm
18:16 25.2 °F /  -3.8 °C 2.5 °F /  -16.4 °C 30.48 in /  1032.1 hPa NW 10.9 mph /  17.5 km/h 15.0 mph /  24.1 km/h 37 % 0.00 in /  0 mm
18:21 25.2 °F /  -3.8 °C 3.1 °F /  -16.1 °C 30.49 in /  1032.4 hPa NNW 4.5 mph /  7.2 km/h 6.9 mph /  11.1 km/h 38 % 0.00 in /  0 mm
18:26 25.1 °F /  -3.8 °C 3.0 °F /  -16.1 °C 30.49 in /  1032.4 hPa NW 5.2 mph /  8.4 km/h 9.2 mph /  14.8 km/h 38 % 0.00 in /  0 mm
18:31 25.0 °F /  -3.9 °C 2.9 °F /  -16.2 °C 30.49 in /  1032.4 hPa NNW 7.7 mph /  12.4 km/h 16.1 mph /  25.9 km/h 38 % 0.00 in /  0 mm
18:37 24.9 °F /  -3.9 °C 2.8 °F /  -16.2 °C 30.49 in /  1032.4 hPa NNW 7.9 mph /  12.7 km/h 13.8 mph /  22.2 km/h 38 % 0.00 in /  0 mm
18:42 24.8 °F /  -4 °C 1.0 °F /  -17.2 °C 30.49 in /  1032.4 hPa NNW 9.3 mph /  15 km/h 14.0 mph /  22.5 km/h 35 % 0.00 in /  0 mm
18:47 24.6 °F /  -4.1 °C 1.4 °F /  -17 °C 30.49 in /  1032.4 hPa WNW 10.5 mph /  16.9 km/h 18.4 mph /  29.6 km/h 36 % 0.00 in /  0 mm
18:52 24.4 °F /  -4.2 °C 2.4 °F /  -16.4 °C 30.49 in /  1032.4 hPa NE 9.0 mph /  14.5 km/h 12.7 mph /  20.4 km/h 38 % 0.00 in /  0 mm
18:57 24.3 °F /  -4.3 °C 2.9 °F /  -16.2 °C 30.49 in /  1032.4 hPa NNE 11.5 mph /  18.5 km/h 17.0 mph /  27.4 km/h 39 % 0.00 in /  0 mm
19:02 24.2 °F /  -4.3 °C 2.2 °F /  -16.6 °C 30.50 in /  1032.7 hPa NNE 8.2 mph /  13.2 km/h 11.5 mph /  18.5 km/h 38 % 0.00 in /  0 mm
19:07 24.0 °F /  -4.4 °C 1.5 °F /  -16.9 °C 30.50 in /  1032.7 hPa NNE 4.3 mph /  6.9 km/h 15.0 mph /  24.1 km/h 37 % 0.00 in /  0 mm
19:12 23.9 °F /  -4.5 °C 1.4 °F /  -17 °C 30.50 in /  1032.7 hPa NW 5.9 mph /  9.5 km/h 10.4 mph /  16.7 km/h 37 % 0.00 in /  0 mm
19:17 23.8 °F /  -4.6 °C 1.3 °F /  -17.1 °C 30.50 in /  1032.7 hPa North 4.1 mph /  6.6 km/h 6.9 mph /  11.1 km/h 37 % 0.00 in /  0 mm
19:22 23.6 °F /  -4.7 °C 1.7 °F /  -16.8 °C 30.50 in /  1032.7 hPa North 10.9 mph /  17.5 km/h 16.1 mph /  25.9 km/h 38 % 0.00 in /  0 mm
19:27 23.6 °F /  -4.7 °C 1.7 °F /  -16.8 °C 30.50 in /  1032.7 hPa NNW 8.9 mph /  14.3 km/h 16.1 mph /  25.9 km/h 38 % 0.00 in /  0 mm
19:32 23.5 °F /  -4.7 °C 2.1 °F /  -16.6 °C 30.50 in /  1032.7 hPa North 8.2 mph /  13.2 km/h 12.0 mph /  19.3 km/h 39 % 0.00 in /  0 mm
19:37 23.4 °F /  -4.8 °C 0.9 °F /  -17.3 °C 30.50 in /  1032.7 hPa North 8.6 mph /  13.8 km/h 11.5 mph /  18.5 km/h 37 % 0.00 in /  0 mm
19:43 23.3 °F /  -4.8 °C 1.4 °F /  -17 °C 30.50 in /  1032.7 hPa NNW 7.5 mph /  12.1 km/h 16.1 mph /  25.9 km/h 38 % 0.00 in /  0 mm
19:48 23.2 °F /  -4.9 °C 0.7 °F /  -17.4 °C 30.50 in /  1032.7 hPa NNE 7.7 mph /  12.4 km/h 13.8 mph /  22.2 km/h 37 % 0.00 in /  0 mm
19:53 23.1 °F /  -4.9 °C 2.9 °F /  -16.2 °C 30.50 in /  1032.7 hPa NE 5.5 mph /  8.9 km/h 11.5 mph /  18.5 km/h 41 % 0.00 in /  0 mm
19:58 23.1 °F /  -4.9 °C 1.8 °F /  -16.8 °C 30.50 in /  1032.7 hPa North 5.0 mph /  8 km/h 17.3 mph /  27.8 km/h 39 % 0.00 in /  0 mm
20:03 23.0 °F /  -5 °C 1.7 °F /  -16.8 °C 30.50 in /  1032.7 hPa NNW 7.0 mph /  11.3 km/h 18.0 mph /  29 km/h 39 % 0.00 in /  0 mm
20:08 22.9 °F /  -5.1 °C 1.6 °F /  -16.9 °C 30.50 in /  1032.7 hPa North 7.0 mph /  11.3 km/h 14.0 mph /  22.5 km/h 39 % 0.00 in /  0 mm
20:13 22.8 °F /  -5.1 °C 0.9 °F /  -17.3 °C 30.51 in /  1033.1 hPa North 9.0 mph /  14.5 km/h 15.0 mph /  24.1 km/h 38 % 0.00 in /  0 mm
20:18 22.6 °F /  -5.2 °C 1.4 °F /  -17 °C 30.51 in /  1033.1 hPa NNW 10.0 mph /  16.1 km/h 18.0 mph /  29 km/h 39 % 0.00 in /  0 mm
20:23 22.5 °F /  -5.3 °C 1.2 °F /  -17.1 °C 30.51 in /  1033.1 hPa North 6.8 mph /  10.9 km/h 10.4 mph /  16.7 km/h 39 % 0.00 in /  0 mm
20:28 22.5 °F /  -5.3 °C 1.2 °F /  -17.1 °C 30.51 in /  1033.1 hPa NNW 7.0 mph /  11.3 km/h 20.0 mph /  32.2 km/h 39 % 0.00 in /  0 mm
20:33 22.4 °F /  -5.3 °C 1.1 °F /  -17.2 °C 30.52 in /  1033.4 hPa NNW 4.3 mph /  6.9 km/h 13.8 mph /  22.2 km/h 39 % 0.00 in /  0 mm
20:38 22.3 °F /  -5.4 °C 2.6 °F /  -16.3 °C 30.52 in /  1033.4 hPa North 7.0 mph /  11.3 km/h 12.0 mph /  19.3 km/h 42 % 0.00 in /  0 mm
20:43 22.2 °F /  -5.4 °C 2.0 °F /  -16.7 °C 30.52 in /  1033.4 hPa North 9.6 mph /  15.4 km/h 16.0 mph /  25.7 km/h 41 % 0.00 in /  0 mm
20:48 22.1 °F /  -5.5 °C 2.0 °F /  -16.7 °C 30.53 in /  1033.7 hPa NNW 9.0 mph /  14.5 km/h 15.0 mph /  24.1 km/h 41 % 0.00 in /  0 mm
20:53 22.0 °F /  -5.6 °C 1.9 °F /  -16.7 °C 30.53 in /  1033.7 hPa WNW 7.3 mph /  11.7 km/h 9.2 mph /  14.8 km/h 41 % 0.00 in /  0 mm
20:58 21.9 °F /  -5.6 °C 1.8 °F /  -16.8 °C 30.53 in /  1033.7 hPa North 8.9 mph /  14.3 km/h 11.0 mph /  17.7 km/h 41 % 0.00 in /  0 mm
21:03 21.8 °F /  -5.7 °C 0.6 °F /  -17.4 °C 30.53 in /  1033.7 hPa NW 4.7 mph /  7.6 km/h 10.4 mph /  16.7 km/h 39 % 0.00 in /  0 mm
21:08 21.6 °F /  -5.8 °C 1.0 °F /  -17.2 °C 30.53 in /  1033.7 hPa NW 4.4 mph /  7.1 km/h 11.5 mph /  18.5 km/h 40 % 0.00 in /  0 mm
21:13 21.5 °F /  -5.8 °C 0.3 °F /  -17.6 °C 30.53 in /  1033.7 hPa NW 5.9 mph /  9.5 km/h 11.5 mph /  18.5 km/h 39 % 0.00 in /  0 mm
21:18 21.4 °F /  -5.9 °C 1.8 °F /  -16.8 °C 30.54 in /  1034.1 hPa WNW 7.9 mph /  12.7 km/h 15.0 mph /  24.1 km/h 42 % 0.00 in /  0 mm
21:23 21.3 °F /  -5.9 °C 1.2 °F /  -17.1 °C 30.54 in /  1034.1 hPa NE 5.3 mph /  8.5 km/h 10.4 mph /  16.7 km/h 41 % 0.00 in /  0 mm
21:28 21.2 °F /  -6 °C 1.6 °F /  -16.9 °C 30.54 in /  1034.1 hPa North 4.9 mph /  7.9 km/h 10.4 mph /  16.7 km/h 42 % 0.00 in /  0 mm
21:33 21.1 °F /  -6.1 °C 1.0 °F /  -17.2 °C 30.54 in /  1034.1 hPa NW 9.5 mph /  15.3 km/h 17.0 mph /  27.4 km/h 41 % 0.00 in /  0 mm
21:38 21.0 °F /  -6.1 °C 0.9 °F /  -17.3 °C 30.54 in /  1034.1 hPa NNW 4.2 mph /  6.8 km/h 10.4 mph /  16.7 km/h 41 % 0.00 in /  0 mm
21:44 20.8 °F /  -6.2 °C 0.2 °F /  -17.7 °C 30.54 in /  1034.1 hPa NW 8.1 mph /  13 km/h 16.1 mph /  25.9 km/h 40 % 0.00 in /  0 mm
21:49 20.7 °F /  -6.3 °C 0.7 °F /  -17.4 °C 30.54 in /  1034.1 hPa NNW 9.7 mph /  15.6 km/h 19.6 mph /  31.5 km/h 41 % 0.00 in /  0 mm
21:54 20.6 °F /  -6.3 °C 0.6 °F /  -17.4 °C 30.54 in /  1034.1 hPa NNW 8.1 mph /  13 km/h 11.5 mph /  18.5 km/h 41 % 0.00 in /  0 mm
21:59 20.4 °F /  -6.4 °C -1.2 °F /  -18.4 °C 30.55 in /  1034.4 hPa North 6.2 mph /  10 km/h 18.4 mph /  29.6 km/h 38 % 0.00 in /  0 mm
22:04 20.3 °F /  -6.5 °C -0.2 °F /  -17.9 °C 30.54 in /  1034.1 hPa North 7.2 mph /  11.6 km/h 12.7 mph /  20.4 km/h 40 % 0.00 in /  0 mm
22:09 20.2 °F /  -6.6 °C 1.7 °F /  -16.8 °C 30.55 in /  1034.4 hPa WNW 8.0 mph /  12.9 km/h 12.7 mph /  20.4 km/h 44 % 0.00 in /  0 mm
22:14 20.2 °F /  -6.6 °C 2.2 °F /  -16.6 °C 30.55 in /  1034.4 hPa NW 4.5 mph /  7.2 km/h 10.4 mph /  16.7 km/h 45 % 0.00 in /  0 mm
22:19 20.1 °F /  -6.6 °C 1.1 °F /  -17.2 °C 30.54 in /  1034.1 hPa NW 8.4 mph /  13.5 km/h 16.1 mph /  25.9 km/h 43 % 0.00 in /  0 mm
22:24 20.1 °F /  -6.6 °C 1.1 °F /  -17.2 °C 30.54 in /  1034.1 hPa NW 7.6 mph /  12.2 km/h 16.0 mph /  25.7 km/h 43 % 0.00 in /  0 mm
22:29 19.9 °F /  -6.7 °C 1.0 °F /  -17.2 °C 30.54 in /  1034.1 hPa NNW 7.1 mph /  11.4 km/h 11.5 mph /  18.5 km/h 43 % 0.00 in /  0 mm
22:34 19.8 °F /  -6.8 °C 0.4 °F /  -17.6 °C 30.54 in /  1034.1 hPa NW 6.4 mph /  10.3 km/h 13.8 mph /  22.2 km/h 42 % 0.00 in /  0 mm
22:39 19.6 °F /  -6.9 °C -0.3 °F /  -17.9 °C 30.55 in /  1034.4 hPa NW 8.5 mph /  13.7 km/h 12.7 mph /  20.4 km/h 41 % 0.00 in /  0 mm
22:44 19.5 °F /  -6.9 °C 1.1 °F /  -17.2 °C 30.54 in /  1034.1 hPa NW 4.2 mph /  6.8 km/h 8.1 mph /  13 km/h 44 % 0.00 in /  0 mm
22:46 19.5 °F /  -6.9 °C 1.1 °F /  -17.2 °C 30.54 in /  1034.1 hPa West 6.7 mph /  10.8 km/h 11.5 mph /  18.5 km/h 44 % 0.00 in /  0 mm
22:51 19.4 °F /  -7 °C 0.5 °F /  -17.5 °C 30.54 in /  1034.1 hPa NW 6.1 mph /  9.8 km/h 15.0 mph /  24.1 km/h 43 % 0.00 in /  0 mm
22:56 19.3 °F /  -7.1 °C -0.1 °F /  -17.8 °C 30.54 in /  1034.1 hPa NW 6.1 mph /  9.8 km/h 15.0 mph /  24.1 km/h 42 % 0.00 in /  0 mm
23:01 19.3 °F /  -7.1 °C 0.4 °F /  -17.6 °C 30.55 in /  1034.4 hPa NNW 7.5 mph /  12.1 km/h 13.0 mph /  20.9 km/h 43 % 0.00 in /  0 mm
23:06 19.2 °F /  -7.1 °C 0.3 °F /  -17.6 °C 30.54 in /  1034.1 hPa North 7.3 mph /  11.7 km/h 13.8 mph /  22.2 km/h 43 % 0.00 in /  0 mm
23:11 19.0 °F /  -7.2 °C 0.1 °F /  -17.7 °C 30.54 in /  1034.1 hPa North 9.2 mph /  14.8 km/h 17.3 mph /  27.8 km/h 43 % 0.00 in /  0 mm
23:16 19.0 °F /  -7.2 °C 1.1 °F /  -17.2 °C 30.54 in /  1034.1 hPa NW 9.6 mph /  15.4 km/h 16.1 mph /  25.9 km/h 45 % 0.00 in /  0 mm
23:21 18.9 °F /  -7.3 °C 0.5 °F /  -17.5 °C 30.54 in /  1034.1 hPa NW 7.4 mph /  11.9 km/h 17.3 mph /  27.8 km/h 44 % 0.00 in /  0 mm
23:26 18.9 °F /  -7.3 °C 0.5 °F /  -17.5 °C 30.55 in /  1034.4 hPa North 8.1 mph /  13 km/h 12.7 mph /  20.4 km/h 44 % 0.00 in /  0 mm
23:31 18.7 °F /  -7.4 °C 0.4 °F /  -17.6 °C 30.54 in /  1034.1 hPa NNE 10.9 mph /  17.5 km/h 19.6 mph /  31.5 km/h 44 % 0.00 in /  0 mm
23:37 18.6 °F /  -7.4 °C 0.7 °F /  -17.4 °C 30.55 in /  1034.4 hPa NE 11.9 mph /  19.2 km/h 19.6 mph /  31.5 km/h 45 % 0.00 in /  0 mm
23:42 18.6 °F /  -7.4 °C 0.7 °F /  -17.4 °C 30.54 in /  1034.1 hPa NW 8.7 mph /  14 km/h 17.3 mph /  27.8 km/h 45 % 0.00 in /  0 mm
23:47 18.5 °F /  -7.5 °C 0.7 °F /  -17.4 °C 30.55 in /  1034.4 hPa NW 6.7 mph /  10.8 km/h 11.0 mph /  17.7 km/h 45 % 0.00 in /  0 mm
23:52 18.4 °F /  -7.6 °C 0.1 °F /  -17.7 °C 30.55 in /  1034.4 hPa North 8.7 mph /  14 km/h 11.5 mph /  18.5 km/h 44 % 0.00 in /  0 mm
23:57 18.2 °F /  -7.7 °C -0.1 °F /  -17.8 °C 30.55 in /  1034.4 hPa North 9.2 mph /  14.8 km/h 13.8 mph /  22.2 km/h 44 % 0.00 in /  0 mm
Crab Meadow Weather
Compliments of Weather Underground - 3 mb

Script developed by  Jim McMurry - jmcmurry@mwt.net Adapted for the template by  Wim van der Kuil - Leuven-Template.eu

Weather Terms: Winter Storm Warning - Hazardous winter weather conditions that pose a threat to life and/or property are occurring, imminent or likely. The generic term, winter storm warning, is used for a combination of two or more of the following winter weather events; heavy snow, freezing rain, sleet and strong winds.